Flight Track Log - Related Links

Times and Time Zones

All times are in EDT time to prevent confusion due to time zone crossing. See the BER6776 flight status page for this flight to view local times or setup timezone preferences in your user account.

Time Position Orientation Groundspeed Altitude Reporting Facility
EDT Latitude Longitude Course Direction KTS MPH feet Rate Location/Type
Thu 03:26:00 PM 50.2257 9.4122 121° Southeast  Level Estimated
Thu 03:27:00 PM 50.1880 9.5013 123° Southeast  Level Estimated
Thu 03:28:00 PM 50.1502 9.5903 124° Southeast  Level Estimated
Thu 03:29:00 PM 50.1123 9.6791 124° Southeast  Level Estimated
Thu 03:30:00 PM 50.0744 9.7678 124° Southeast  Level Estimated
Thu 03:31:00 PM 50.0364 9.8563 124° Southeast  Level Estimated
Thu 03:32:00 PM 49.9983 9.9447 124° Southeast  Level Estimated
Thu 03:33:00 PM 49.9602 10.0329 124° Southeast  Level Estimated
Thu 03:34:00 PM 49.9219 10.1210 124° Southeast  Level Estimated
Thu 03:35:00 PM 49.8837 10.2090 124° Southeast  Level Estimated
Thu 03:36:00 PM 49.8453 10.2968 124° Southeast  Level Estimated
Thu 03:37:00 PM 49.8069 10.3845 124° Southeast  Level Estimated
Thu 03:38:00 PM 49.7685 10.4721 124° Southeast  Level Estimated
Thu 03:39:00 PM 49.7299 10.5595 124° Southeast  Level Estimated
Thu 03:40:00 PM 49.6913 10.6468 124° Southeast  Level Estimated
Thu 03:41:00 PM 49.6526 10.7339 124° Southeast  Level Estimated
Thu 03:42:00 PM 49.6139 10.8209 124° Southeast  Level Estimated
Thu 03:43:00 PM 49.5751 10.9077 125° Southeast  Level Estimated
Thu 03:44:00 PM 49.5363 10.9944 125° Southeast  Level Estimated
Thu 03:45:00 PM 49.4986 11.0781 125° Southeast  Level Estimated
Thu 03:46:00 PM 49.4986 11.0781 327° Northwest  Level Estimated
Thu 03:47:00 PM 49.4986 11.0781 327° Northwest  Level Estimated
Thu 03:48:00 PM 49.4986 11.0781 327° Northwest  Level Estimated
Thu 03:49:00 PM 49.4986 11.0781 327° Northwest  Level Estimated
Thu 03:50:00 PM 49.4986 11.0781 327° Northwest  Level Estimated
Thu 03:51:00 PM 49.4986 11.0781 327° Northwest  Level Estimated
Thu 03:52:00 PM 49.4986 11.0781 327° Northwest  Level Estimated
Thu 03:53:00 PM 49.4986 11.0781 327° Northwest  Level Estimated
Thu 03:54:00 PM 49.4986 11.0781 327° Northwest  Level Estimated
Thu 03:55:00 PM 49.4986 11.0781 327° Northwest  Level Estimated
Thu 03:56:00 PM 49.4986 11.0781 327° Northwest  Level Estimated
Thu 03:57:00 PM 49.4986 11.0781 327° Northwest  Level Estimated
Thu 03:58:00 PM 49.4986 11.0781 327° Northwest  Level Estimated
Thu 03:59:00 PM 49.4986 11.0781 327° Northwest  Level Estimated
Thu 04:00:00 PM 49.4986 11.0781 327° Northwest  Level Estimated
Thu 04:01:00 PM 49.4986 11.0781 327° Northwest  Level Estimated

Login

Don't have an account? Register now (free) for customized features, flight alerts, and more!